Chillum, Maryland
Current Conditions -  °F | °C
As of 12:25 PM on Wednesday 26 Nov 2014 (Local Time) from KCGS Reporting Station
Overcast Overcast  
Wind Chill: 30°   Ceiling: 600
Heat Index: 34°   Visibility: 4mi
Dew Point: 34°   Wind: 5mph
Humidity: 100%   Direction: 10°N
Pressure: 29.95"   Gusts: NA
Location:  38.9677°N, 76.9584°W
Report Text: KCGS 261725Z AUTO 01004KT 4SM OVC006 01/01 A2995 RMK AO1
Loading
Personal Weather Stations






























Interactive Weather Map New forecast layout! Learn more

10-Day Weather Forecast

Advertisements
Track Severe Weather on mobile